Accueil
METAR-TAF:

METAR-TAF

Aéroports :

Base des Forces canadiennes Shearwater

Shearwater, Nouvelle-Écosse, Canada

latitude: 44-38N, longitude: 063-30W, altitude: 51 m

METAR: absent

Heure: 19:47 (22:47 UTC)

Prévision

Le bulletin a été fait il y a 28 heures et 53 minutes, à 17:54 UTC
Prévision valable du 18 à 18 UTC au 19 à 06 UTC
Vent 20 kt de ouest/nord-ouest avec des rafales jusqu'à 35 kt
Visibilité: 10 km
Nuages fragmentés à une hauteur de 3000 ft
Temporairement
du 18 à 18 UTC au 18 à 22 UTC
Visibilité: 3.2 km
faibles averses de neige, grésil ou neige roulée
Temporairement
du 18 à 22 UTC au 19 à 02 UTC
Visibilité: 8.0 km
faibles averses de neige, grésil ou neige roulée

TAF: CYAW 181754Z 1818/1906 30020G35KT P6SM BKN030 TEMPO 1818/1822 2SM -SHSNGS TEMPO 1822/1902 5SM -SHSNGS RMK NXT FCST BY 190000Z

Observations et prévisions météorologiques de plus de 4000 aéroports (messages METAR et TAF).

Les stations disponibles sont représentées par des disques jaunes et rouges sur la carte.

Passer la souris dessus pour voir le nom de la station.

Cliquer dessus pour voir les observations et prévisions météorologiques.

Pour changer de carte: cliquez sur les boutons verts avec une croix noire pour zoomer, sur le bouton vert avec un tiret pour effectuer un zoom arrière, ou sur les flèches vertes pour les cartes adjacentes.


METAR-TAF: